sensor_id;sensor_type;location;lat;lon;timestamp;pressure;altitude;pressure_sealevel;temperature;humidity
76311;BME280;76681;59.304;18.294;2024-03-02T00:00:49;101511.28;;;2.87;82.33
76311;BME280;76681;59.304;18.294;2024-03-02T00:03:16;101513.00;;;2.86;82.12
76311;BME280;76681;59.304;18.294;2024-03-02T00:05:49;101520.75;;;2.86;82.24
76311;BME280;76681;59.304;18.294;2024-03-02T00:08:23;101505.22;;;2.86;82.43
76311;BME280;76681;59.304;18.294;2024-03-02T00:10:50;101517.28;;;2.86;82.38
76311;BME280;76681;59.304;18.294;2024-03-02T00:13:20;101512.13;;;2.86;82.28
76311;BME280;76681;59.304;18.294;2024-03-02T00:15:50;101516.44;;;2.87;82.22
76311;BME280;76681;59.304;18.294;2024-03-02T00:18:20;101524.19;;;2.87;82.20
76311;BME280;76681;59.304;18.294;2024-03-02T00:20:48;101519.94;;;2.87;82.38
76311;BME280;76681;59.304;18.294;2024-03-02T00:23:16;101517.34;;;2.87;82.37
76311;BME280;76681;59.304;18.294;2024-03-02T00:25:44;101512.06;;;2.84;82.19
76311;BME280;76681;59.304;18.294;2024-03-02T00:28:15;101518.16;;;2.85;82.29
76311;BME280;76681;59.304;18.294;2024-03-02T00:30:55;101519.88;;;2.86;82.26
76311;BME280;76681;59.304;18.294;2024-03-02T00:33:24;101521.59;;;2.85;82.35
76311;BME280;76681;59.304;18.294;2024-03-02T00:35:54;101512.97;;;2.85;82.27
76311;BME280;76681;59.304;18.294;2024-03-02T00:38:21;101522.47;;;2.86;82.28
76311;BME280;76681;59.304;18.294;2024-03-02T00:40:49;101513.84;;;2.85;82.07
76311;BME280;76681;59.304;18.294;2024-03-02T00:43:43;101514.72;;;2.86;82.24
76311;BME280;76681;59.304;18.294;2024-03-02T00:46:11;101511.22;;;2.83;82.25
76311;BME280;76681;59.304;18.294;2024-03-02T00:48:39;101514.72;;;2.86;82.19
76311;BME280;76681;59.304;18.294;2024-03-02T00:51:10;101511.22;;;2.83;81.96
76311;BME280;76681;59.304;18.294;2024-03-02T00:53:37;101512.97;;;2.85;82.09
76311;BME280;76681;59.304;18.294;2024-03-02T00:56:09;101514.66;;;2.82;82.13
76311;BME280;76681;59.304;18.294;2024-03-02T00:58:36;101506.88;;;2.82;81.99
76311;BME280;76681;59.304;18.294;2024-03-02T01:01:03;101506.84;;;2.81;82.22
76311;BME280;76681;59.304;18.294;2024-03-02T01:03:31;101500.81;;;2.80;82.07
76311;BME280;76681;59.304;18.294;2024-03-02T01:05:58;101510.28;;;2.80;81.91
76311;BME280;76681;59.304;18.294;2024-03-02T01:08:26;101505.97;;;2.80;82.13
76311;BME280;76681;59.304;18.294;2024-03-02T01:10:53;101505.97;;;2.80;82.15
76311;BME280;76681;59.304;18.294;2024-03-02T01:13:21;101515.44;;;2.80;82.05
76311;BME280;76681;59.304;18.294;2024-03-02T01:15:47;101509.41;;;2.79;82.00
76311;BME280;76681;59.304;18.294;2024-03-02T01:18:14;101512.00;;;2.79;82.07
76311;BME280;76681;59.304;18.294;2024-03-02T01:20:41;101512.00;;;2.79;82.22
76311;BME280;76681;59.304;18.294;2024-03-02T01:23:08;101514.59;;;2.79;82.13
76311;BME280;76681;59.304;18.294;2024-03-02T01:25:36;101517.16;;;2.79;82.02
76311;BME280;76681;59.304;18.294;2024-03-02T01:28:04;101525.78;;;2.80;81.92
76311;BME280;76681;59.304;18.294;2024-03-02T01:30:31;101517.16;;;2.79;82.25
76311;BME280;76681;59.304;18.294;2024-03-02T01:32:58;101529.25;;;2.80;82.10
76311;BME280;76681;59.304;18.294;2024-03-02T01:35:25;101527.50;;;2.79;82.17
76311;BME280;76681;59.304;18.294;2024-03-02T01:37:53;101523.19;;;2.80;82.18
76311;BME280;76681;59.304;18.294;2024-03-02T01:40:20;101519.75;;;2.79;82.14
76311;BME280;76681;59.304;18.294;2024-03-02T01:42:50;101522.34;;;2.79;82.05
76311;BME280;76681;59.304;18.294;2024-03-02T01:45:17;101519.75;;;2.79;82.16
76311;BME280;76681;59.304;18.294;2024-03-02T01:47:44;101520.56;;;2.78;82.15
76311;BME280;76681;59.304;18.294;2024-03-02T01:50:11;101516.25;;;2.77;82.29
76311;BME280;76681;59.304;18.294;2024-03-02T01:52:39;101515.38;;;2.77;82.22
76311;BME280;76681;59.304;18.294;2024-03-02T01:55:06;101513.66;;;2.76;82.05
76311;BME280;76681;59.304;18.294;2024-03-02T01:57:33;101515.34;;;2.75;82.18
76311;BME280;76681;59.304;18.294;2024-03-02T02:00:02;101520.56;;;2.77;82.07
76311;BME280;76681;59.304;18.294;2024-03-02T02:02:31;101516.19;;;2.74;82.04
76311;BME280;76681;59.304;18.294;2024-03-02T02:04:57;101517.09;;;2.76;82.22
76311;BME280;76681;59.304;18.294;2024-03-02T02:07:24;101518.84;;;2.77;82.29
76311;BME280;76681;59.304;18.294;2024-03-02T02:09:51;101516.25;;;2.77;82.26
76311;BME280;76681;59.304;18.294;2024-03-02T02:12:18;101516.25;;;2.77;82.31
76311;BME280;76681;59.304;18.294;2024-03-02T02:14:48;101521.41;;;2.77;82.05
76311;BME280;76681;59.304;18.294;2024-03-02T02:17:17;101530.03;;;2.78;82.28
76311;BME280;76681;59.304;18.294;2024-03-02T02:19:43;101529.19;;;2.77;82.03
76311;BME280;76681;59.304;18.294;2024-03-02T02:22:12;101518.84;;;2.77;82.14
76311;BME280;76681;59.304;18.294;2024-03-02T02:24:40;101531.75;;;2.77;82.22
76311;BME280;76681;59.304;18.294;2024-03-02T02:27:07;101519.69;;;2.78;82.17
76311;BME280;76681;59.304;18.294;2024-03-02T02:29:34;101508.56;;;2.79;82.14
76311;BME280;76681;59.304;18.294;2024-03-02T02:32:01;101510.19;;;2.75;81.95
76311;BME280;76681;59.304;18.294;2024-03-02T02:34:27;101513.72;;;2.79;81.94
76311;BME280;76681;59.304;18.294;2024-03-02T02:36:54;101516.25;;;2.77;82.06
76311;BME280;76681;59.304;18.294;2024-03-02T02:39:23;101509.41;;;2.79;81.91
76311;BME280;76681;59.304;18.294;2024-03-02T02:41:50;101510.22;;;2.78;81.87
76311;BME280;76681;59.304;18.294;2024-03-02T02:44:17;101507.63;;;2.77;81.92
76311;BME280;76681;59.304;18.294;2024-03-02T02:46:44;101511.09;;;2.77;81.92
76311;BME280;76681;59.304;18.294;2024-03-02T02:49:11;101511.09;;;2.77;81.95
76311;BME280;76681;59.304;18.294;2024-03-02T02:51:37;101510.22;;;2.77;82.09
76311;BME280;76681;59.304;18.294;2024-03-02T02:54:04;101506.72;;;2.75;82.11
76311;BME280;76681;59.304;18.294;2024-03-02T02:56:32;101516.25;;;2.76;82.19
76311;BME280;76681;59.304;18.294;2024-03-02T02:58:59;101512.75;;;2.75;82.12
76311;BME280;76681;59.304;18.294;2024-03-02T03:01:26;101520.50;;;2.75;82.31
76311;BME280;76681;59.304;18.294;2024-03-02T03:03:53;101513.59;;;2.74;82.02
76311;BME280;76681;59.304;18.294;2024-03-02T03:06:20;101516.25;;;2.76;81.90
76311;BME280;76681;59.304;18.294;2024-03-02T03:08:47;101515.31;;;2.74;82.02
76311;BME280;76681;59.304;18.294;2024-03-02T03:11:14;101514.47;;;2.73;82.11
76311;BME280;76681;59.304;18.294;2024-03-02T03:13:42;101508.44;;;2.74;81.89
76311;BME280;76681;59.304;18.294;2024-03-02T03:16:09;101517.03;;;2.73;81.95
76311;BME280;76681;59.304;18.294;2024-03-02T03:18:36;101504.00;;;2.69;82.02
76311;BME280;76681;59.304;18.294;2024-03-02T03:21:03;101507.53;;;2.72;81.96
76311;BME280;76681;59.304;18.294;2024-03-02T03:23:30;101514.47;;;2.73;82.13
76311;BME280;76681;59.304;18.294;2024-03-02T03:25:57;101511.81;;;2.72;82.04
76311;BME280;76681;59.304;18.294;2024-03-02T03:28:24;101515.28;;;2.72;82.12
76311;BME280;76681;59.304;18.294;2024-03-02T03:30:52;101508.38;;;2.71;82.02
76311;BME280;76681;59.304;18.294;2024-03-02T03:33:19;101508.34;;;2.70;81.92
76311;BME280;76681;59.304;18.294;2024-03-02T03:35:46;101513.50;;;2.70;82.00
76311;BME280;76681;59.304;18.294;2024-03-02T03:38:13;101507.47;;;2.69;82.03
76311;BME280;76681;59.304;18.294;2024-03-02T03:40:40;101510.06;;;2.69;82.04
76311;BME280;76681;59.304;18.294;2024-03-02T03:43:07;101513.50;;;2.70;81.97
76311;BME280;76681;59.304;18.294;2024-03-02T03:45:34;101517.78;;;2.69;81.81
76311;BME280;76681;59.304;18.294;2024-03-02T03:48:02;101521.25;;;2.70;81.92
76311;BME280;76681;59.304;18.294;2024-03-02T03:50:29;101523.84;;;2.70;81.96
76311;BME280;76681;59.304;18.294;2024-03-02T03:52:56;101520.38;;;2.68;82.02
76311;BME280;76681;59.304;18.294;2024-03-02T03:55:23;101519.50;;;2.67;82.01
76311;BME280;76681;59.304;18.294;2024-03-02T03:57:50;101519.44;;;2.66;81.97
76311;BME280;76681;59.304;18.294;2024-03-02T04:00:17;101517.72;;;2.65;81.85
76311;BME280;76681;59.304;18.294;2024-03-02T04:02:44;101521.97;;;2.64;81.78
76311;BME280;76681;59.304;18.294;2024-03-02T04:05:12;101516.81;;;2.64;82.01
76311;BME280;76681;59.304;18.294;2024-03-02T04:07:39;101513.38;;;2.64;81.97
76311;BME280;76681;59.304;18.294;2024-03-02T04:10:07;101522.84;;;2.63;81.90
76311;BME280;76681;59.304;18.294;2024-03-02T04:12:35;101518.53;;;2.64;81.96
76311;BME280;76681;59.304;18.294;2024-03-02T04:15:04;101511.63;;;2.63;81.90
76311;BME280;76681;59.304;18.294;2024-03-02T04:17:32;101520.25;;;2.62;82.33
76311;BME280;76681;59.304;18.294;2024-03-02T04:20:01;101519.34;;;2.61;82.07
76311;BME280;76681;59.304;18.294;2024-03-02T04:22:33;101524.50;;;2.61;81.98
76311;BME280;76681;59.304;18.294;2024-03-02T04:25:01;101522.78;;;2.60;82.08
76311;BME280;76681;59.304;18.294;2024-03-02T04:27:30;101524.50;;;2.59;81.92
76311;BME280;76681;59.304;18.294;2024-03-02T04:29:57;101521.03;;;2.59;81.95
76311;BME280;76681;59.304;18.294;2024-03-02T04:32:25;101524.44;;;2.58;81.88
76311;BME280;76681;59.304;18.294;2024-03-02T04:34:52;101527.88;;;2.57;81.91
76311;BME280;76681;59.304;18.294;2024-03-02T04:37:19;101522.72;;;2.57;81.89
76311;BME280;76681;59.304;18.294;2024-03-02T04:39:47;101536.47;;;2.56;81.90
76311;BME280;76681;59.304;18.294;2024-03-02T04:42:14;101529.53;;;2.55;81.91
76311;BME280;76681;59.304;18.294;2024-03-02T04:44:41;101536.47;;;2.56;81.88
76311;BME280;76681;59.304;18.294;2024-03-02T04:47:08;101537.28;;;2.55;81.92
76311;BME280;76681;59.304;18.294;2024-03-02T04:49:35;101533.00;;;2.55;81.93
76311;BME280;76681;59.304;18.294;2024-03-02T04:52:02;101538.16;;;2.54;81.75
76311;BME280;76681;59.304;18.294;2024-03-02T04:54:29;101526.75;;;2.46;81.60
76311;BME280;76681;59.304;18.294;2024-03-02T04:56:57;101526.03;;;2.53;81.66
76311;BME280;76681;59.304;18.294;2024-03-02T04:59:25;101529.47;;;2.52;81.71
76311;BME280;76681;59.304;18.294;2024-03-02T05:01:52;101538.06;;;2.51;81.75
76311;BME280;76681;59.304;18.294;2024-03-02T05:04:19;101538.91;;;2.50;81.59
76311;BME280;76681;59.304;18.294;2024-03-02T05:06:46;101540.59;;;2.49;81.96
76311;BME280;76681;59.304;18.294;2024-03-02T05:09:17;101538.91;;;2.50;81.62
76311;BME280;76681;59.304;18.294;2024-03-02T05:11:44;101549.22;;;2.50;81.62
76311;BME280;76681;59.304;18.294;2024-03-02T05:14:38;101548.34;;;2.48;81.52
76311;BME280;76681;59.304;18.294;2024-03-02T05:17:04;101543.19;;;2.48;81.82
76311;BME280;76681;59.304;18.294;2024-03-02T05:19:31;101552.63;;;2.47;81.77
76311;BME280;76681;59.304;18.294;2024-03-02T05:21:58;101543.19;;;2.48;81.74
76311;BME280;76681;59.304;18.294;2024-03-02T05:24:25;101548.34;;;2.48;81.72
76311;BME280;76681;59.304;18.294;2024-03-02T05:26:54;101553.47;;;2.46;81.95
76311;BME280;76681;59.304;18.294;2024-03-02T05:29:21;101551.72;;;2.45;81.71
76311;BME280;76681;59.304;18.294;2024-03-02T05:31:49;101547.31;;;2.41;82.00
76311;BME280;76681;59.304;18.294;2024-03-02T05:34:16;101562.91;;;2.46;81.61
76311;BME280;76681;59.304;18.294;2024-03-02T05:36:44;101549.94;;;2.43;81.67
76311;BME280;76681;59.304;18.294;2024-03-02T05:39:10;101532.53;;;2.35;81.83
76311;BME280;76681;59.304;18.294;2024-03-02T05:41:37;101549.09;;;2.44;81.85
76311;BME280;76681;59.304;18.294;2024-03-02T05:44:04;101555.09;;;2.43;82.00
76311;BME280;76681;59.304;18.294;2024-03-02T05:46:31;101558.56;;;2.43;82.04
76311;BME280;76681;59.304;18.294;2024-03-02T05:49:00;101567.16;;;2.44;81.63
76311;BME280;76681;59.304;18.294;2024-03-02T05:51:27;101570.59;;;2.43;81.96
76311;BME280;76681;59.304;18.294;2024-03-02T05:53:54;101573.19;;;2.43;81.82
76311;BME280;76681;59.304;18.294;2024-03-02T05:56:20;101572.25;;;2.41;81.82
76311;BME280;76681;59.304;18.294;2024-03-02T05:58:47;101577.44;;;2.41;81.70
76311;BME280;76681;59.304;18.294;2024-03-02T06:01:26;101574.91;;;2.42;81.88
76311;BME280;76681;59.304;18.294;2024-03-02T06:03:55;101575.75;;;2.43;82.03
76311;BME280;76681;59.304;18.294;2024-03-02T06:06:24;101582.66;;;2.44;82.13
76311;BME280;76681;59.304;18.294;2024-03-02T06:08:51;101580.94;;;2.43;81.74
76311;BME280;76681;59.304;18.294;2024-03-02T06:11:19;101587.81;;;2.42;81.89
76311;BME280;76681;59.304;18.294;2024-03-02T06:13:46;101578.34;;;2.43;81.75
76311;BME280;76681;59.304;18.294;2024-03-02T06:16:13;101583.50;;;2.43;82.20
76311;BME280;76681;59.304;18.294;2024-03-02T06:18:40;101591.25;;;2.43;82.41
76311;BME280;76681;59.304;18.294;2024-03-02T06:21:07;101588.59;;;2.40;82.35
76311;BME280;76681;59.304;18.294;2024-03-02T06:23:35;101601.59;;;2.43;82.44
76311;BME280;76681;59.304;18.294;2024-03-02T06:26:02;101603.31;;;2.44;82.72
76311;BME280;76681;59.304;18.294;2024-03-02T06:28:29;101597.28;;;2.43;82.64
76311;BME280;76681;59.304;18.294;2024-03-02T06:30:56;101595.56;;;2.42;82.61
76311;BME280;76681;59.304;18.294;2024-03-02T06:33:23;101607.69;;;2.45;83.13
76311;BME280;76681;59.304;18.294;2024-03-02T06:35:49;101588.56;;;2.38;83.16
76311;BME280;76681;59.304;18.294;2024-03-02T06:38:16;101604.25;;;2.46;83.13
76311;BME280;76681;59.304;18.294;2024-03-02T06:40:45;101603.41;;;2.47;83.27
76311;BME280;76681;59.304;18.294;2024-03-02T06:43:11;101600.00;;;2.48;83.23
76311;BME280;76681;59.304;18.294;2024-03-02T06:45:38;101609.47;;;2.49;83.46
76311;BME280;76681;59.304;18.294;2024-03-02T06:48:06;101618.97;;;2.50;83.43
76311;BME280;76681;59.304;18.294;2024-03-02T06:50:33;101631.06;;;2.51;83.18
76311;BME280;76681;59.304;18.294;2024-03-02T06:53:00;101619.03;;;2.53;83.26
76311;BME280;76681;59.304;18.294;2024-03-02T06:55:29;101615.63;;;2.54;83.31
76311;BME280;76681;59.304;18.294;2024-03-02T06:57:57;101639.81;;;2.56;83.23
76311;BME280;76681;59.304;18.294;2024-03-02T07:00:24;101625.97;;;2.54;83.08
76311;BME280;76681;59.304;18.294;2024-03-02T07:02:51;101627.78;;;2.58;83.30
76311;BME280;76681;59.304;18.294;2024-03-02T07:05:18;101631.22;;;2.57;83.47
76311;BME280;76681;59.304;18.294;2024-03-02T07:07:46;101629.53;;;2.59;82.77
76311;BME280;76681;59.304;18.294;2024-03-02T07:10:13;101637.38;;;2.62;83.15
76311;BME280;76681;59.304;18.294;2024-03-02T07:12:40;101642.56;;;2.64;83.29
76311;BME280;76681;59.304;18.294;2024-03-02T07:15:09;101638.31;;;2.66;83.04
76311;BME280;76681;59.304;18.294;2024-03-02T07:18:03;101638.34;;;2.67;83.03
76311;BME280;76681;59.304;18.294;2024-03-02T07:20:30;101640.97;;;2.69;82.95
76311;BME280;76681;59.304;18.294;2024-03-02T07:22:57;101636.63;;;2.68;82.96
76311;BME280;76681;59.304;18.294;2024-03-02T07:25:24;101648.78;;;2.72;82.97
76311;BME280;76681;59.304;18.294;2024-03-02T07:27:51;101641.91;;;2.72;82.81
76311;BME280;76681;59.304;18.294;2024-03-02T07:30:19;101641.94;;;2.74;82.92
76311;BME280;76681;59.304;18.294;2024-03-02T07:32:49;101644.53;;;2.75;82.82
76311;BME280;76681;59.304;18.294;2024-03-02T07:35:16;101642.88;;;2.76;82.59
76311;BME280;76681;59.304;18.294;2024-03-02T07:37:43;101639.31;;;2.72;82.52
76311;BME280;76681;59.304;18.294;2024-03-02T07:40:11;101655.81;;;2.77;82.72
76311;BME280;76681;59.304;18.294;2024-03-02T07:42:39;101642.88;;;2.76;82.36
76311;BME280;76681;59.304;18.294;2024-03-02T07:45:07;101660.19;;;2.80;82.49
76311;BME280;76681;59.304;18.294;2024-03-02T07:47:35;101649.88;;;2.81;82.55
76311;BME280;76681;59.304;18.294;2024-03-02T07:50:02;101643.88;;;2.82;82.44
76311;BME280;76681;59.304;18.294;2024-03-02T07:52:31;101645.59;;;2.83;82.39
76311;BME280;76681;59.304;18.294;2024-03-02T07:54:58;101645.66;;;2.85;82.54
76311;BME280;76681;59.304;18.294;2024-03-02T07:57:25;101645.66;;;2.87;82.70
76311;BME280;76681;59.304;18.294;2024-03-02T07:59:52;101653.47;;;2.88;82.44
76311;BME280;76681;59.304;18.294;2024-03-02T08:02:19;101656.06;;;2.88;82.33
76311;BME280;76681;59.304;18.294;2024-03-02T08:04:48;101656.94;;;2.89;82.48
76311;BME280;76681;59.304;18.294;2024-03-02T08:07:16;101664.75;;;2.92;82.27
76311;BME280;76681;59.304;18.294;2024-03-02T08:09:42;101660.44;;;2.92;82.30
76311;BME280;76681;59.304;18.294;2024-03-02T08:12:09;101662.22;;;2.93;82.29
76311;BME280;76681;59.304;18.294;2024-03-02T08:14:36;101658.78;;;2.94;82.48
76311;BME280;76681;59.304;18.294;2024-03-02T08:17:03;101664.00;;;2.96;82.30
76311;BME280;76681;59.304;18.294;2024-03-02T08:19:35;101657.09;;;2.96;82.31
76311;BME280;76681;59.304;18.294;2024-03-02T08:22:03;101664.94;;;2.99;82.22
76311;BME280;76681;59.304;18.294;2024-03-02T08:24:30;101658.91;;;3.00;82.11
76311;BME280;76681;59.304;18.294;2024-03-02T08:26:58;101663.28;;;3.03;82.19
76311;BME280;76681;59.304;18.294;2024-03-02T08:29:25;101674.50;;;3.03;82.13
76311;BME280;76681;59.304;18.294;2024-03-02T08:31:52;101673.69;;;3.06;82.09
76311;BME280;76681;59.304;18.294;2024-03-02T08:34:19;101668.56;;;3.08;82.01
76311;BME280;76681;59.304;18.294;2024-03-02T08:36:46;101666.00;;;3.09;82.04
76311;BME280;76681;59.304;18.294;2024-03-02T08:39:14;101670.34;;;3.10;81.94
76311;BME280;76681;59.304;18.294;2024-03-02T08:41:42;101664.38;;;3.13;81.77
76311;BME280;76681;59.304;18.294;2024-03-02T08:44:09;101664.38;;;3.13;81.74
76311;BME280;76681;59.304;18.294;2024-03-02T08:46:36;101653.13;;;3.12;81.81
76311;BME280;76681;59.304;18.294;2024-03-02T08:49:04;101657.50;;;3.15;81.70
76311;BME280;76681;59.304;18.294;2024-03-02T08:51:31;101666.97;;;3.14;81.65
76311;BME280;76681;59.304;18.294;2024-03-02T08:53:58;101660.97;;;3.15;81.67
76311;BME280;76681;59.304;18.294;2024-03-02T08:56:27;101656.69;;;3.17;81.76
76311;BME280;76681;59.304;18.294;2024-03-02T08:58:54;101656.69;;;3.17;81.56
76311;BME280;76681;59.304;18.294;2024-03-02T09:01:21;101653.28;;;3.18;81.59
76311;BME280;76681;59.304;18.294;2024-03-02T09:03:48;101652.44;;;3.19;81.59
76311;BME280;76681;59.304;18.294;2024-03-02T09:06:15;101662.78;;;3.19;81.43
76311;BME280;76681;59.304;18.294;2024-03-02T09:08:43;101665.38;;;3.19;81.49
76311;BME280;76681;59.304;18.294;2024-03-02T09:11:10;101667.97;;;3.19;81.48
76311;BME280;76681;59.304;18.294;2024-03-02T09:13:39;101663.72;;;3.21;81.62
76311;BME280;76681;59.304;18.294;2024-03-02T09:16:07;101666.28;;;3.21;81.62
76311;BME280;76681;59.304;18.294;2024-03-02T09:18:36;101666.28;;;3.21;81.54
76311;BME280;76681;59.304;18.294;2024-03-02T09:21:04;101662.88;;;3.24;81.51
76311;BME280;76681;59.304;18.294;2024-03-02T09:23:31;101662.00;;;3.23;81.52
76311;BME280;76681;59.304;18.294;2024-03-02T09:25:58;101657.75;;;3.25;81.60
76311;BME280;76681;59.304;18.294;2024-03-02T09:28:25;101656.03;;;3.26;81.54
76311;BME280;76681;59.304;18.294;2024-03-02T09:30:53;101650.91;;;3.27;81.56
76311;BME280;76681;59.304;18.294;2024-03-02T09:33:20;101662.13;;;3.29;81.49
76311;BME280;76681;59.304;18.294;2024-03-02T09:35:47;101655.28;;;3.32;81.48
76311;BME280;76681;59.304;18.294;2024-03-02T09:38:15;101658.78;;;3.34;81.66
76311;BME280;76681;59.304;18.294;2024-03-02T09:40:42;101658.81;;;3.35;81.63
76311;BME280;76681;59.304;18.294;2024-03-02T09:43:09;101653.69;;;3.37;81.50
76311;BME280;76681;59.304;18.294;2024-03-02T09:45:36;101666.63;;;3.38;81.48
76311;BME280;76681;59.304;18.294;2024-03-02T09:48:05;101665.81;;;3.41;81.60
76311;BME280;76681;59.304;18.294;2024-03-02T09:50:32;101673.63;;;3.42;81.41
76311;BME280;76681;59.304;18.294;2024-03-02T09:52:59;101665.06;;;3.45;81.34
76311;BME280;76681;59.304;18.294;2024-03-02T09:55:26;101670.28;;;3.48;81.26
76311;BME280;76681;59.304;18.294;2024-03-02T09:57:53;101672.03;;;3.49;81.32
76311;BME280;76681;59.304;18.294;2024-03-02T10:00:21;101672.94;;;3.51;81.19
76311;BME280;76681;59.304;18.294;2024-03-02T10:02:48;101671.28;;;3.53;81.29
76311;BME280;76681;59.304;18.294;2024-03-02T10:05:25;101669.56;;;3.55;80.82
76311;BME280;76681;59.304;18.294;2024-03-02T10:08:03;101676.50;;;3.56;81.13
76311;BME280;76681;59.304;18.294;2024-03-02T10:10:36;101677.44;;;3.58;80.91
76311;BME280;76681;59.304;18.294;2024-03-02T10:13:06;101673.13;;;3.60;80.93
76311;BME280;76681;59.304;18.294;2024-03-02T10:15:36;101663.59;;;3.58;80.92
76311;BME280;76681;59.304;18.294;2024-03-02T10:18:03;101678.38;;;3.63;80.68
76311;BME280;76681;59.304;18.294;2024-03-02T10:20:32;101674.94;;;3.64;80.49
76311;BME280;76681;59.304;18.294;2024-03-02T10:23:14;101675.81;;;3.65;80.51
76311;BME280;76681;59.304;18.294;2024-03-02T10:25:41;101669.78;;;3.64;80.60
76311;BME280;76681;59.304;18.294;2024-03-02T10:28:09;101670.66;;;3.65;80.33
76311;BME280;76681;59.304;18.294;2024-03-02T10:30:36;101669.72;;;3.63;80.03
76311;BME280;76681;59.304;18.294;2024-03-02T10:33:05;101672.31;;;3.63;80.23
76311;BME280;76681;59.304;18.294;2024-03-02T10:35:34;101674.03;;;3.62;79.87
76311;BME280;76681;59.304;18.294;2024-03-02T10:38:04;101671.44;;;3.62;80.14
76311;BME280;76681;59.304;18.294;2024-03-02T10:40:31;101667.16;;;3.63;80.08
76311;BME280;76681;59.304;18.294;2024-03-02T10:42:59;101668.88;;;3.62;80.08
76311;BME280;76681;59.304;18.294;2024-03-02T10:45:28;101671.44;;;3.62;80.03
76311;BME280;76681;59.304;18.294;2024-03-02T10:47:56;101668.88;;;3.62;79.91
76311;BME280;76681;59.304;18.294;2024-03-02T10:50:24;101667.16;;;3.63;79.91
76311;BME280;76681;59.304;18.294;2024-03-02T10:52:52;101668.88;;;3.62;79.77
76311;BME280;76681;59.304;18.294;2024-03-02T10:55:19;101671.44;;;3.62;79.72
76311;BME280;76681;59.304;18.294;2024-03-02T10:57:51;101668.00;;;3.62;79.69
76311;BME280;76681;59.304;18.294;2024-03-02T11:00:19;101668.88;;;3.62;79.70
76311;BME280;76681;59.304;18.294;2024-03-02T11:02:51;101666.28;;;3.62;79.79
76311;BME280;76681;59.304;18.294;2024-03-02T11:05:26;101672.31;;;3.63;79.60
76311;BME280;76681;59.304;18.294;2024-03-02T11:07:58;101676.63;;;3.62;79.89
76311;BME280;76681;59.304;18.294;2024-03-02T11:10:33;101668.00;;;3.63;79.77
76311;BME280;76681;59.304;18.294;2024-03-02T11:13:02;101668.81;;;3.61;79.69
76311;BME280;76681;59.304;18.294;2024-03-02T11:15:34;101676.63;;;3.62;79.59
76311;BME280;76681;59.304;18.294;2024-03-02T11:18:03;101664.53;;;3.61;79.77
76311;BME280;76681;59.304;18.294;2024-03-02T11:20:36;101662.78;;;3.60;79.59
76311;BME280;76681;59.304;18.294;2024-03-02T11:23:06;101667.94;;;3.60;79.52
76311;BME280;76681;59.304;18.294;2024-03-02T11:25:34;101661.03;;;3.59;79.58
76311;BME280;76681;59.304;18.294;2024-03-02T11:28:03;101663.63;;;3.59;79.69
76311;BME280;76681;59.304;18.294;2024-03-02T11:30:49;101656.72;;;3.60;79.48
76311;BME280;76681;59.304;18.294;2024-03-02T11:33:23;101659.31;;;3.58;79.44
76311;BME280;76681;59.304;18.294;2024-03-02T11:35:53;101658.41;;;3.58;79.17
76311;BME280;76681;59.304;18.294;2024-03-02T11:38:21;101661.84;;;3.57;79.11
76311;BME280;76681;59.304;18.294;2024-03-02T11:40:50;101660.97;;;3.56;79.24
76311;BME280;76681;59.304;18.294;2024-03-02T11:43:17;101659.22;;;3.55;79.36
76311;BME280;76681;59.304;18.294;2024-03-02T11:45:44;101662.66;;;3.54;79.14
76311;BME280;76681;59.304;18.294;2024-03-02T11:48:11;101669.50;;;3.52;78.89
76311;BME280;76681;59.304;18.294;2024-03-02T11:50:41;101676.41;;;3.51;79.28
76311;BME280;76681;59.304;18.294;2024-03-02T11:53:10;101679.00;;;3.51;79.21
76311;BME280;76681;59.304;18.294;2024-03-02T11:55:39;101685.03;;;3.52;79.13
76311;BME280;76681;59.304;18.294;2024-03-02T11:58:09;101672.94;;;3.51;79.22
76311;BME280;76681;59.304;18.294;2024-03-02T12:00:36;101672.94;;;3.51;79.27
76311;BME280;76681;59.304;18.294;2024-03-02T12:03:05;101682.44;;;3.50;79.02
76311;BME280;76681;59.304;18.294;2024-03-02T12:05:34;101671.22;;;3.50;78.84
76311;BME280;76681;59.304;18.294;2024-03-02T12:08:03;101672.91;;;3.49;79.11
76311;BME280;76681;59.304;18.294;2024-03-02T12:10:31;101662.44;;;3.43;79.01
76311;BME280;76681;59.304;18.294;2024-03-02T12:13:00;101667.72;;;3.48;79.09
76311;BME280;76681;59.304;18.294;2024-03-02T12:15:29;101669.44;;;3.47;79.08
76311;BME280;76681;59.304;18.294;2024-03-02T12:17:57;101667.72;;;3.48;79.03
76311;BME280;76681;59.304;18.294;2024-03-02T12:20:25;101665.97;;;3.47;79.24
76311;BME280;76681;59.304;18.294;2024-03-02T12:22:53;101669.38;;;3.46;79.02
76311;BME280;76681;59.304;18.294;2024-03-02T12:25:20;101673.75;;;3.48;79.23
76311;BME280;76681;59.304;18.294;2024-03-02T12:27:48;101672.88;;;3.48;79.09
76311;BME280;76681;59.304;18.294;2024-03-02T12:30:18;101678.06;;;3.49;79.04
76311;BME280;76681;59.304;18.294;2024-03-02T12:32:45;101676.38;;;3.50;79.03
76311;BME280;76681;59.304;18.294;2024-03-02T12:35:12;101679.00;;;3.51;79.11
76311;BME280;76681;59.304;18.294;2024-03-02T12:37:44;101672.94;;;3.51;79.26
76311;BME280;76681;59.304;18.294;2024-03-02T12:40:12;101661.72;;;3.50;78.95
76311;BME280;76681;59.304;18.294;2024-03-02T12:42:40;101668.63;;;3.51;79.16
76311;BME280;76681;59.304;18.294;2024-03-02T12:45:07;101678.13;;;3.51;79.13
76311;BME280;76681;59.304;18.294;2024-03-02T12:47:36;101682.44;;;3.50;78.75
76311;BME280;76681;59.304;18.294;2024-03-02T12:50:04;101677.25;;;3.50;79.11
76311;BME280;76681;59.304;18.294;2024-03-02T12:52:32;101673.81;;;3.51;79.08
76311;BME280;76681;59.304;18.294;2024-03-02T12:55:00;101670.34;;;3.51;78.72